sensor_id;sensor_type;location;lat;lon;timestamp;pressure;altitude;pressure_sealevel;temperature;humidity
70684;BME280;58263;48.146;11.440;2023-05-08T00:02:26;95885.19;;;15.84;68.75
70684;BME280;58263;48.146;11.440;2023-05-08T00:04:52;95880.03;;;15.83;68.70
70684;BME280;58263;48.146;11.440;2023-05-08T00:07:17;95887.91;;;15.89;68.38
70684;BME280;58263;48.146;11.440;2023-05-08T00:09:42;95892.53;;;15.94;68.07
70684;BME280;58263;48.146;11.440;2023-05-08T00:12:07;95887.56;;;15.81;67.77
70684;BME280;58263;48.146;11.440;2023-05-08T00:14:33;95882.47;;;15.84;68.39
70684;BME280;58263;48.146;11.440;2023-05-08T00:16:58;95883.25;;;15.80;68.12
70684;BME280;58263;48.146;11.440;2023-05-08T00:19:23;95885.06;;;15.74;68.80
70684;BME280;58263;48.146;11.440;2023-05-08T00:21:48;95898.91;;;15.78;69.38
70684;BME280;58263;48.146;11.440;2023-05-08T00:24:14;95898.53;;;15.69;68.96
70684;BME280;58263;48.146;11.440;2023-05-08T00:26:39;95901.25;;;15.69;69.00
70684;BME280;58263;48.146;11.440;2023-05-08T00:29:06;95897.97;;;15.62;70.17
70684;BME280;58263;48.146;11.440;2023-05-08T00:31:31;95901.78;;;15.66;69.47
70684;BME280;58263;48.146;11.440;2023-05-08T00:33:57;95903.94;;;15.64;69.92
70684;BME280;58263;48.146;11.440;2023-05-08T00:36:22;95909.84;;;15.61;69.84
70684;BME280;58263;48.146;11.440;2023-05-08T00:38:47;95902.78;;;15.60;70.15
70684;BME280;58263;48.146;11.440;2023-05-08T00:41:12;95906.63;;;15.64;69.96
70684;BME280;58263;48.146;11.440;2023-05-08T00:43:38;95899.75;;;15.51;71.30
70684;BME280;58263;48.146;11.440;2023-05-08T00:46:04;95900.06;;;15.54;70.75
70684;BME280;58263;48.146;11.440;2023-05-08T00:48:31;95899.72;;;15.46;71.00
70684;BME280;58263;48.146;11.440;2023-05-08T00:50:59;95904.84;;;15.47;71.25
70684;BME280;58263;48.146;11.440;2023-05-08T00:53:25;95904.06;;;15.47;70.95
70684;BME280;58263;48.146;11.440;2023-05-08T00:55:51;95906.50;;;15.48;71.29
70684;BME280;58263;48.146;11.440;2023-05-08T00:58:20;95907.03;;;15.45;71.32
70684;BME280;58263;48.146;11.440;2023-05-08T01:00:48;95906.50;;;15.48;70.83
70684;BME280;58263;48.146;11.440;2023-05-08T01:03:14;95907.69;;;15.30;72.02
70684;BME280;58263;48.146;11.440;2023-05-08T01:05:40;95902.56;;;15.29;71.95
70684;BME280;58263;48.146;11.440;2023-05-08T01:08:06;95912.78;;;15.27;72.87
70684;BME280;58263;48.146;11.440;2023-05-08T01:10:46;95898.78;;;15.30;73.49
70684;BME280;58263;48.146;11.440;2023-05-08T01:13:23;95911.38;;;15.19;74.04
70684;BME280;58263;48.146;11.440;2023-05-08T01:16:04;95913.31;;;15.24;73.90
70684;BME280;58263;48.146;11.440;2023-05-08T01:18:37;95910.59;;;15.24;74.28
70684;BME280;58263;48.146;11.440;2023-05-08T01:21:28;95912.75;;;15.21;74.43
70684;BME280;58263;48.146;11.440;2023-05-08T01:24:18;95913.56;;;15.22;74.03
70684;BME280;58263;48.146;11.440;2023-05-08T01:32:34;95915.25;;;15.01;75.29
70684;BME280;58263;48.146;11.440;2023-05-08T01:35:25;95924.97;;;15.02;75.54
70684;BME280;58263;48.146;11.440;2023-05-08T01:38:05;95934.59;;;15.15;74.50
70684;BME280;58263;48.146;11.440;2023-05-08T01:43:34;95929.31;;;15.03;75.25
70684;BME280;58263;48.146;11.440;2023-05-08T01:46:07;95933.66;;;15.04;75.43
70684;BME280;58263;48.146;11.440;2023-05-08T01:48:34;95927.94;;;15.00;75.90
70684;BME280;58263;48.146;11.440;2023-05-08T01:51:10;95930.31;;;14.97;76.27
70684;BME280;58263;48.146;11.440;2023-05-08T01:53:41;95939.31;;;15.02;75.88
70684;BME280;58263;48.146;11.440;2023-05-08T01:56:12;95933.16;;;15.07;75.57
70684;BME280;58263;48.146;11.440;2023-05-08T01:58:37;95930.91;;;14.99;76.44
70684;BME280;58263;48.146;11.440;2023-05-08T02:01:04;95934.72;;;15.03;76.56
70684;BME280;58263;48.146;11.440;2023-05-08T02:03:30;95937.94;;;15.00;76.84
70684;BME280;58263;48.146;11.440;2023-05-08T02:05:59;95941.09;;;14.92;77.19
70684;BME280;58263;48.146;11.440;2023-05-08T02:08:25;95941.19;;;15.02;76.79
70684;BME280;58263;48.146;11.440;2023-05-08T02:10:53;95942.81;;;15.03;76.56
70684;BME280;58263;48.146;11.440;2023-05-08T02:13:20;95939.53;;;15.01;77.10
70684;BME280;58263;48.146;11.440;2023-05-08T02:15:48;95936.66;;;15.08;76.96
70684;BME280;58263;48.146;11.440;2023-05-08T02:18:18;95944.75;;;15.08;75.57
70684;BME280;58263;48.146;11.440;2023-05-08T02:20:45;95945.00;;;15.06;75.70
70684;BME280;58263;48.146;11.440;2023-05-08T02:23:11;95945.06;;;15.11;74.35
70684;BME280;58263;48.146;11.440;2023-05-08T02:25:37;95941.13;;;15.19;73.17
70684;BME280;58263;48.146;11.440;2023-05-08T02:28:05;95943.38;;;15.05;72.98
70684;BME280;58263;48.146;11.440;2023-05-08T02:30:31;95936.16;;;15.11;71.27
70684;BME280;58263;48.146;11.440;2023-05-08T02:32:57;95935.50;;;14.98;72.44
70684;BME280;58263;48.146;11.440;2023-05-08T02:35:26;95942.03;;;15.02;71.40
70684;BME280;58263;48.146;11.440;2023-05-08T02:37:54;95939.31;;;15.02;71.48
70684;BME280;58263;48.146;11.440;2023-05-08T02:40:23;95945.00;;;15.06;71.26
70684;BME280;58263;48.146;11.440;2023-05-08T02:42:50;95945.28;;;15.04;71.20
70684;BME280;58263;48.146;11.440;2023-05-08T02:45:16;95946.31;;;14.98;71.28
70684;BME280;58263;48.146;11.440;2023-05-08T02:48:02;95946.53;;;14.97;71.04
70684;BME280;58263;48.146;11.440;2023-05-08T02:50:37;95942.66;;;14.87;69.46
70684;BME280;58263;48.146;11.440;2023-05-08T02:53:11;95948.75;;;14.78;69.51
70684;BME280;58263;48.146;11.440;2023-05-08T02:55:48;95948.53;;;14.79;69.75
70684;BME280;58263;48.146;11.440;2023-05-08T02:58:23;95948.38;;;14.69;69.84
70684;BME280;58263;48.146;11.440;2023-05-08T03:00:57;95943.13;;;14.79;69.56
70684;BME280;58263;48.146;11.440;2023-05-08T03:03:45;95953.78;;;14.69;69.24
70684;BME280;58263;48.146;11.440;2023-05-08T03:06:13;95949.00;;;14.76;68.62
70684;BME280;58263;48.146;11.440;2023-05-08T03:08:41;95957.69;;;14.78;69.15
70684;BME280;58263;48.146;11.440;2023-05-08T03:11:10;95951.84;;;14.86;68.47
70684;BME280;58263;48.146;11.440;2023-05-08T03:13:40;95952.88;;;14.85;68.23
70684;BME280;58263;48.146;11.440;2023-05-08T03:16:08;95952.28;;;14.78;68.89
70684;BME280;58263;48.146;11.440;2023-05-08T03:18:42;95957.16;;;14.81;68.02
70684;BME280;58263;48.146;11.440;2023-05-08T03:21:10;95960.13;;;14.80;67.97
70684;BME280;58263;48.146;11.440;2023-05-08T03:23:37;95954.59;;;14.69;68.95
70684;BME280;58263;48.146;11.440;2023-05-08T03:26:03;95952.13;;;14.68;68.51
70684;BME280;58263;48.146;11.440;2023-05-08T03:28:29;95949.84;;;14.60;68.66
70684;BME280;58263;48.146;11.440;2023-05-08T03:30:56;95955.25;;;14.60;68.65
70684;BME280;58263;48.146;11.440;2023-05-08T03:33:22;95959.50;;;14.56;68.22
70684;BME280;58263;48.146;11.440;2023-05-08T03:35:48;95953.31;;;14.55;68.17
70684;BME280;58263;48.146;11.440;2023-05-08T03:38:15;95953.06;;;14.57;68.11
70684;BME280;58263;48.146;11.440;2023-05-08T03:40:41;95954.63;;;14.52;68.26
70684;BME280;58263;48.146;11.440;2023-05-08T03:43:07;95964.63;;;14.52;68.16
70684;BME280;58263;48.146;11.440;2023-05-08T03:45:36;95950.97;;;14.42;68.13
70684;BME280;58263;48.146;11.440;2023-05-08T03:48:03;95952.09;;;14.46;68.08
70684;BME280;58263;48.146;11.440;2023-05-08T03:50:30;95955.66;;;14.29;68.77
70684;BME280;58263;48.146;11.440;2023-05-08T03:52:57;95964.66;;;14.35;68.07
70684;BME280;58263;48.146;11.440;2023-05-08T03:55:22;95964.47;;;14.42;67.82
70684;BME280;58263;48.146;11.440;2023-05-08T03:57:58;95968.16;;;14.35;67.53
70684;BME280;58263;48.146;11.440;2023-05-08T04:00:42;95969.25;;;14.34;67.34
70684;BME280;58263;48.146;11.440;2023-05-08T04:03:35;95971.69;;;14.36;67.50
70684;BME280;58263;48.146;11.440;2023-05-08T04:06:18;95974.56;;;14.29;67.32
70684;BME280;58263;48.146;11.440;2023-05-08T04:08:57;95973.25;;;14.15;67.71
70684;BME280;58263;48.146;11.440;2023-05-08T04:11:34;95975.97;;;14.15;67.47
70684;BME280;58263;48.146;11.440;2023-05-08T04:14:03;95991.25;;;14.09;68.18
70684;BME280;58263;48.146;11.440;2023-05-08T04:16:36;95982.34;;;14.09;68.01
70684;BME280;58263;48.146;11.440;2023-05-08T04:19:08;95991.66;;;14.01;68.21
70684;BME280;58263;48.146;11.440;2023-05-08T04:21:36;95993.72;;;13.94;68.79
70684;BME280;58263;48.146;11.440;2023-05-08T04:24:06;95998.47;;;13.86;68.82
70684;BME280;58263;48.146;11.440;2023-05-08T04:26:32;95996.09;;;13.90;67.89
70684;BME280;58263;48.146;11.440;2023-05-08T04:28:59;95998.06;;;13.95;67.95
70684;BME280;58263;48.146;11.440;2023-05-08T04:31:25;96005.06;;;13.96;68.07
70684;BME280;58263;48.146;11.440;2023-05-08T04:33:51;96001.66;;;14.00;68.07
70684;BME280;58263;48.146;11.440;2023-05-08T04:36:16;96001.22;;;13.92;67.99
70684;BME280;58263;48.146;11.440;2023-05-08T04:38:42;95998.97;;;14.00;67.78
70684;BME280;58263;48.146;11.440;2023-05-08T04:41:07;96003.09;;;14.08;67.80
70684;BME280;58263;48.146;11.440;2023-05-08T04:43:34;96005.06;;;13.96;68.41
70684;BME280;58263;48.146;11.440;2023-05-08T04:46:00;96011.97;;;13.86;67.93
70684;BME280;58263;48.146;11.440;2023-05-08T04:48:25;96016.66;;;13.79;67.78
70684;BME280;58263;48.146;11.440;2023-05-08T04:50:51;96029.75;;;13.88;67.77
70684;BME280;58263;48.146;11.440;2023-05-08T04:53:16;96019.63;;;13.78;67.79
70684;BME280;58263;48.146;11.440;2023-05-08T04:55:41;96017.91;;;13.89;67.77
70684;BME280;58263;48.146;11.440;2023-05-08T04:58:06;96023.44;;;13.82;67.78
70684;BME280;58263;48.146;11.440;2023-05-08T05:00:33;96022.22;;;13.73;68.35
70684;BME280;58263;48.146;11.440;2023-05-08T05:02:58;96022.38;;;13.66;68.41
70684;BME280;58263;48.146;11.440;2023-05-08T05:05:23;96031.03;;;13.68;68.01
70684;BME280;58263;48.146;11.440;2023-05-08T05:07:49;96028.84;;;13.65;68.16
70684;BME280;58263;48.146;11.440;2023-05-08T05:10:14;96025.00;;;13.61;68.49
70684;BME280;58263;48.146;11.440;2023-05-08T05:12:40;96033.50;;;13.69;68.30
70684;BME280;58263;48.146;11.440;2023-05-08T05:15:06;96027.84;;;13.71;68.40
70684;BME280;58263;48.146;11.440;2023-05-08T05:17:31;96033.31;;;13.59;69.25
70684;BME280;58263;48.146;11.440;2023-05-08T05:19:57;96036.38;;;13.80;68.82
70684;BME280;58263;48.146;11.440;2023-05-08T05:22:23;96043.81;;;13.90;68.67
70684;BME280;58263;48.146;11.440;2023-05-08T05:24:48;96039.06;;;13.80;68.37
70684;BME280;58263;48.146;11.440;2023-05-08T05:27:14;96041.03;;;13.84;68.54
70684;BME280;58263;48.146;11.440;2023-05-08T05:29:39;96047.47;;;13.83;68.48
70684;BME280;58263;48.146;11.440;2023-05-08T05:32:05;96045.09;;;13.70;68.22
70684;BME280;58263;48.146;11.440;2023-05-08T05:34:33;96051.84;;;13.56;68.61
70684;BME280;58263;48.146;11.440;2023-05-08T05:36:58;96054.72;;;13.66;68.55
70684;BME280;58263;48.146;11.440;2023-05-08T05:39:23;96053.66;;;13.67;68.18
70684;BME280;58263;48.146;11.440;2023-05-08T05:41:49;96055.66;;;13.72;68.70
70684;BME280;58263;48.146;11.440;2023-05-08T05:44:14;96056.34;;;13.67;68.89
70684;BME280;58263;48.146;11.440;2023-05-08T05:46:40;96061.91;;;13.60;70.43
70684;BME280;58263;48.146;11.440;2023-05-08T05:49:05;96062.63;;;13.56;70.14
70684;BME280;58263;48.146;11.440;2023-05-08T05:51:31;96061.22;;;13.53;71.39
70684;BME280;58263;48.146;11.440;2023-05-08T05:53:56;96062.16;;;13.59;70.54
70684;BME280;58263;48.146;11.440;2023-05-08T05:56:21;96074.19;;;13.68;69.95
70684;BME280;58263;48.146;11.440;2023-05-08T05:58:47;96067.03;;;13.62;70.38
70684;BME280;58263;48.146;11.440;2023-05-08T06:01:12;96073.97;;;13.58;70.56
70684;BME280;58263;48.146;11.440;2023-05-08T06:03:38;96071.28;;;13.58;70.37
70684;BME280;58263;48.146;11.440;2023-05-08T06:06:04;96074.97;;;13.51;70.13
70684;BME280;58263;48.146;11.440;2023-05-08T06:08:29;96070.22;;;13.59;71.48
70684;BME280;58263;48.146;11.440;2023-05-08T06:10:55;96073.38;;;13.67;70.40
70684;BME280;58263;48.146;11.440;2023-05-08T06:13:20;96069.84;;;13.67;70.56
70684;BME280;58263;48.146;11.440;2023-05-08T06:15:46;96084.22;;;13.44;70.96
70684;BME280;58263;48.146;11.440;2023-05-08T06:18:12;96068.03;;;13.56;70.90
70684;BME280;58263;48.146;11.440;2023-05-08T06:20:37;96077.03;;;13.78;69.18
70684;BME280;58263;48.146;11.440;2023-05-08T06:23:03;96083.16;;;13.74;69.55
70684;BME280;58263;48.146;11.440;2023-05-08T06:25:29;96077.72;;;13.85;68.69
70684;BME280;58263;48.146;11.440;2023-05-08T06:27:55;96079.94;;;13.89;68.49
70684;BME280;58263;48.146;11.440;2023-05-08T06:30:20;96075.84;;;13.86;68.36
70684;BME280;58263;48.146;11.440;2023-05-08T06:32:46;96083.81;;;13.64;68.73
70684;BME280;58263;48.146;11.440;2023-05-08T06:35:11;96085.81;;;13.85;68.85
70684;BME280;58263;48.146;11.440;2023-05-08T06:37:36;96078.97;;;13.95;69.21
70684;BME280;58263;48.146;11.440;2023-05-08T06:40:02;96080.13;;;13.99;68.28
70684;BME280;58263;48.146;11.440;2023-05-08T06:42:28;96086.47;;;13.93;68.33
70684;BME280;58263;48.146;11.440;2023-05-08T06:44:53;96091.88;;;13.93;68.25
70684;BME280;58263;48.146;11.440;2023-05-08T06:47:19;96085.50;;;13.99;68.70
70684;BME280;58263;48.146;11.440;2023-05-08T06:49:44;96092.00;;;13.86;68.73
70684;BME280;58263;48.146;11.440;2023-05-08T06:52:09;96092.66;;;13.93;67.97
70684;BME280;58263;48.146;11.440;2023-05-08T06:54:35;96092.16;;;13.79;68.67
70684;BME280;58263;48.146;11.440;2023-05-08T06:57:00;96089.56;;;13.84;68.88
70684;BME280;58263;48.146;11.440;2023-05-08T06:59:25;96099.41;;;13.91;69.12
70684;BME280;58263;48.146;11.440;2023-05-08T07:01:51;96093.00;;;13.97;68.78
70684;BME280;58263;48.146;11.440;2023-05-08T07:04:16;96094.00;;;13.91;68.22
70684;BME280;58263;48.146;11.440;2023-05-08T07:06:41;96096.69;;;13.91;68.03
70684;BME280;58263;48.146;11.440;2023-05-08T07:09:07;96093.41;;;13.89;68.28
70684;BME280;58263;48.146;11.440;2023-05-08T07:11:32;96092.34;;;13.90;68.28
70684;BME280;58263;48.146;11.440;2023-05-08T07:13:57;96098.41;;;13.97;68.47
70684;BME280;58263;48.146;11.440;2023-05-08T07:16:24;96091.25;;;14.19;68.38
70684;BME280;58263;48.146;11.440;2023-05-08T07:18:49;96098.44;;;14.14;68.39
70684;BME280;58263;48.146;11.440;2023-05-08T07:21:15;96110.03;;;14.14;67.10
70684;BME280;58263;48.146;11.440;2023-05-08T07:23:42;96101.34;;;14.12;67.47
70684;BME280;58263;48.146;11.440;2023-05-08T07:26:07;96104.25;;;14.23;68.69
70684;BME280;58263;48.146;11.440;2023-05-08T07:28:33;96100.91;;;14.49;67.76
70684;BME280;58263;48.146;11.440;2023-05-08T07:30:58;96096.47;;;14.60;67.24
70684;BME280;58263;48.146;11.440;2023-05-08T07:33:23;96108.06;;;14.78;66.12
70684;BME280;58263;48.146;11.440;2023-05-08T07:35:48;96096.91;;;14.91;66.62
70684;BME280;58263;48.146;11.440;2023-05-08T07:38:14;96099.13;;;14.94;65.25
70684;BME280;58263;48.146;11.440;2023-05-08T07:40:39;96105.00;;;15.08;64.53
70684;BME280;58263;48.146;11.440;2023-05-08T07:43:04;96105.81;;;15.31;64.27
70684;BME280;58263;48.146;11.440;2023-05-08T07:45:30;96109.78;;;15.23;63.93
70684;BME280;58263;48.146;11.440;2023-05-08T07:47:57;96104.09;;;15.47;62.42
70684;BME280;58263;48.146;11.440;2023-05-08T07:50:24;96106.00;;;15.46;62.89
70684;BME280;58263;48.146;11.440;2023-05-08T07:52:50;96113.22;;;15.63;62.61
70684;BME280;58263;48.146;11.440;2023-05-08T07:55:16;96119.84;;;15.77;61.78
70684;BME280;58263;48.146;11.440;2023-05-08T07:57:42;96110.56;;;15.90;62.30
70684;BME280;58263;48.146;11.440;2023-05-08T08:00:10;96112.44;;;15.67;61.71
70684;BME280;58263;48.146;11.440;2023-05-08T08:02:36;96112.16;;;15.64;61.78
70684;BME280;58263;48.146;11.440;2023-05-08T08:05:02;96111.81;;;15.82;61.44
70684;BME280;58263;48.146;11.440;2023-05-08T08:07:28;96113.06;;;15.97;60.26
70684;BME280;58263;48.146;11.440;2023-05-08T08:09:53;96106.72;;;16.13;60.19
70684;BME280;58263;48.146;11.440;2023-05-08T08:12:19;96107.00;;;16.49;59.89
70684;BME280;58263;48.146;11.440;2023-05-08T08:14:45;96108.53;;;16.72;59.61
70684;BME280;58263;48.146;11.440;2023-05-08T08:17:10;96103.56;;;16.59;58.40
70684;BME280;58263;48.146;11.440;2023-05-08T08:19:36;96112.88;;;17.16;57.81
70684;BME280;58263;48.146;11.440;2023-05-08T08:22:01;96109.19;;;17.38;56.84
70684;BME280;58263;48.146;11.440;2023-05-08T08:24:26;96110.94;;;17.70;55.59
70684;BME280;58263;48.146;11.440;2023-05-08T08:26:53;96109.06;;;17.76;54.85
70684;BME280;58263;48.146;11.440;2023-05-08T08:29:19;96113.38;;;17.71;55.03
70684;BME280;58263;48.146;11.440;2023-05-08T08:31:44;96119.22;;;18.16;54.57
70684;BME280;58263;48.146;11.440;2023-05-08T08:34:10;96108.91;;;18.44;53.08
70684;BME280;58263;48.146;11.440;2023-05-08T08:36:35;96108.63;;;18.92;53.00
70684;BME280;58263;48.146;11.440;2023-05-08T08:39:01;96105.81;;;19.23;52.72
70684;BME280;58263;48.146;11.440;2023-05-08T08:41:26;96101.19;;;19.29;51.31
70684;BME280;58263;48.146;11.440;2023-05-08T08:43:53;96096.81;;;19.33;50.77
70684;BME280;58263;48.146;11.440;2023-05-08T08:46:25;96098.84;;;19.67;50.46
70684;BME280;58263;48.146;11.440;2023-05-08T08:48:54;96095.22;;;19.87;49.79
70684;BME280;58263;48.146;11.440;2023-05-08T08:51:26;96092.13;;;20.04;49.47
70684;BME280;58263;48.146;11.440;2023-05-08T08:54:08;96098.13;;;20.01;48.28
70684;BME280;58263;48.146;11.440;2023-05-08T08:56:36;96089.56;;;20.18;48.36
70684;BME280;58263;48.146;11.440;2023-05-08T08:59:04;96090.41;;;20.53;47.45
70684;BME280;58263;48.146;11.440;2023-05-08T09:01:32;96089.31;;;20.83;47.79
70684;BME280;58263;48.146;11.440;2023-05-08T09:04:00;96083.16;;;21.02;47.52
70684;BME280;58263;48.146;11.440;2023-05-08T09:06:26;96094.00;;;21.55;46.09
70684;BME280;58263;48.146;11.440;2023-05-08T09:08:54;96091.28;;;21.55;45.17
70684;BME280;58263;48.146;11.440;2023-05-08T09:11:20;96095.63;;;22.00;45.68
70684;BME280;58263;48.146;11.440;2023-05-08T09:13:45;96098.97;;;22.35;43.96
70684;BME280;58263;48.146;11.440;2023-05-08T09:16:11;96093.63;;;22.24;43.81
70684;BME280;58263;48.146;11.440;2023-05-08T09:18:36;96085.72;;;22.75;44.09
70684;BME280;58263;48.146;11.440;2023-05-08T09:21:01;96094.59;;;22.67;42.74
70684;BME280;58263;48.146;11.440;2023-05-08T09:23:27;96092.53;;;22.91;42.70
70684;BME280;58263;48.146;11.440;2023-05-08T09:25:52;96098.84;;;23.06;42.47
70684;BME280;58263;48.146;11.440;2023-05-08T09:28:22;96102.19;;;22.37;41.68
70684;BME280;58263;48.146;11.440;2023-05-08T09:30:49;96096.84;;;22.65;42.91
70684;BME280;58263;48.146;11.440;2023-05-08T09:33:18;96087.78;;;22.97;41.93
70684;BME280;58263;48.146;11.440;2023-05-08T09:35:43;96103.09;;;23.12;42.32
70684;BME280;58263;48.146;11.440;2023-05-08T09:38:39;96092.06;;;23.03;41.42
70684;BME280;58263;48.146;11.440;2023-05-08T09:41:13;96094.75;;;23.36;41.28
70684;BME280;58263;48.146;11.440;2023-05-08T09:43:40;96090.81;;;24.07;40.33
70684;BME280;58263;48.146;11.440;2023-05-08T09:46:25;96098.63;;;24.36;39.31
70684;BME280;58263;48.146;11.440;2023-05-08T09:48:52;96096.69;;;24.59;38.62
70684;BME280;58263;48.146;11.440;2023-05-08T09:51:19;96093.09;;;24.50;38.88
70684;BME280;58263;48.146;11.440;2023-05-08T09:53:45;96091.66;;;24.53;38.81
70684;BME280;58263;48.146;11.440;2023-05-08T09:56:11;96094.47;;;24.16;38.60
70684;BME280;58263;48.146;11.440;2023-05-08T09:58:41;96092.63;;;24.71;37.68
70684;BME280;58263;48.146;11.440;2023-05-08T10:01:07;96094.06;;;24.68;38.39
70684;BME280;58263;48.146;11.440;2023-05-08T10:03:51;96096.41;;;25.15;38.15
70684;BME280;58263;48.146;11.440;2023-05-08T10:06:16;96084.88;;;25.04;36.89
70684;BME280;58263;48.146;11.440;2023-05-08T10:08:42;96091.09;;;24.87;38.25
70684;BME280;58263;48.146;11.440;2023-05-08T10:11:18;96091.47;;;24.94;38.02
70684;BME280;58263;48.146;11.440;2023-05-08T10:13:44;96099.69;;;24.94;37.51
70684;BME280;58263;48.146;11.440;2023-05-08T10:16:15;96093.88;;;24.64;37.75
70684;BME280;58263;48.146;11.440;2023-05-08T10:18:48;96103.19;;;24.41;38.34
70684;BME280;58263;48.146;11.440;2023-05-08T10:21:14;96096.03;;;23.80;39.99
70684;BME280;58263;48.146;11.440;2023-05-08T10:23:46;96095.53;;;24.52;38.33
70684;BME280;58263;48.146;11.440;2023-05-08T10:26:16;96094.19;;;24.26;38.26
70684;BME280;58263;48.146;11.440;2023-05-08T10:28:49;96093.72;;;24.24;39.01
70684;BME280;58263;48.146;11.440;2023-05-08T10:31:17;96091.16;;;24.51;38.40
70684;BME280;58263;48.146;11.440;2023-05-08T10:33:44;96088.38;;;24.64;38.29
70684;BME280;58263;48.146;11.440;2023-05-08T10:36:10;96091.78;;;24.47;38.33
70684;BME280;58263;48.146;11.440;2023-05-08T10:38:38;96090.91;;;24.38;37.99
70684;BME280;58263;48.146;11.440;2023-05-08T10:41:04;96085.06;;;24.76;37.23
70684;BME280;58263;48.146;11.440;2023-05-08T10:43:29;96088.72;;;24.26;37.82
70684;BME280;58263;48.146;11.440;2023-05-08T10:45:56;96088.97;;;24.39;38.28
70684;BME280;58263;48.146;11.440;2023-05-08T10:48:34;96080.88;;;24.56;37.88
70684;BME280;58263;48.146;11.440;2023-05-08T10:53:51;96083.44;;;25.07;37.29
70684;BME280;58263;48.146;11.440;2023-05-08T10:56:24;96083.25;;;26.01;35.24
70684;BME280;58263;48.146;11.440;2023-05-08T10:58:54;96078.22;;;25.28;36.92
70684;BME280;58263;48.146;11.440;2023-05-08T11:01:19;96074.94;;;25.17;37.08
70684;BME280;58263;48.146;11.440;2023-05-08T11:03:46;96076.28;;;24.88;36.67
70684;BME280;58263;48.146;11.440;2023-05-08T11:06:14;96078.28;;;24.74;37.10
70684;BME280;58263;48.146;11.440;2023-05-08T11:08:49;96081.28;;;24.95;37.47
70684;BME280;58263;48.146;11.440;2023-05-08T11:11:31;96084.53;;;24.29;37.58
70684;BME280;58263;48.146;11.440;2023-05-08T11:19:18;96075.63;;;24.91;36.89
70684;BME280;58263;48.146;11.440;2023-05-08T11:24:35;96065.72;;;25.44;36.72
70684;BME280;58263;48.146;11.440;2023-05-08T11:27:01;96065.09;;;25.25;36.30
70684;BME280;58263;48.146;11.440;2023-05-08T11:29:26;96067.75;;;24.98;36.68
70684;BME280;58263;48.146;11.440;2023-05-08T11:31:52;96057.69;;;25.25;36.53
70684;BME280;58263;48.146;11.440;2023-05-08T11:37:09;96069.94;;;25.19;37.17
70684;BME280;58263;48.146;11.440;2023-05-08T11:39:34;96068.00;;;25.60;37.49
70684;BME280;58263;48.146;11.440;2023-05-08T11:45:03;96066.22;;;25.55;36.39
70684;BME280;58263;48.146;11.440;2023-05-08T11:47:40;96067.06;;;25.73;35.69
70684;BME280;58263;48.146;11.440;2023-05-08T11:50:10;96068.38;;;25.76;35.61
70684;BME280;58263;48.146;11.440;2023-05-08T11:52:37;96069.50;;;25.75;35.43
70684;BME280;58263;48.146;11.440;2023-05-08T11:55:10;96072.78;;;26.29;34.31
70684;BME280;58263;48.146;11.440;2023-05-08T11:57:36;96066.00;;;26.36;34.18
70684;BME280;58263;48.146;11.440;2023-05-08T12:00:10;96071.19;;;26.20;34.69
70684;BME280;58263;48.146;11.440;2023-05-08T12:05:01;96071.34;;;25.08;36.23
70684;BME280;58263;48.146;11.440;2023-05-08T12:07:27;96075.06;;;25.35;36.30
70684;BME280;58263;48.146;11.440;2023-05-08T12:09:52;96079.00;;;24.88;36.63
70684;BME280;58263;48.146;11.440;2023-05-08T12:12:17;96074.53;;;24.70;37.27
70684;BME280;58263;48.146;11.440;2023-05-08T12:14:43;96073.75;;;24.55;37.20
70684;BME280;58263;48.146;11.440;2023-05-08T12:17:08;96076.38;;;24.60;37.42
70684;BME280;58263;48.146;11.440;2023-05-08T12:19:34;96070.28;;;24.63;36.08
70684;BME280;58263;48.146;11.440;2023-05-08T12:21:59;96077.44;;;24.51;36.09
70684;BME280;58263;48.146;11.440;2023-05-08T12:24:24;96069.19;;;24.42;36.75
70684;BME280;58263;48.146;11.440;2023-05-08T12:26:54;96076.03;;;23.94;36.45
70684;BME280;58263;48.146;11.440;2023-05-08T12:29:20;96079.59;;;23.94;37.27
70684;BME280;58263;48.146;11.440;2023-05-08T12:31:46;96075.84;;;23.62;37.82
70684;BME280;58263;48.146;11.440;2023-05-08T12:34:12;96071.38;;;23.67;39.06
70684;BME280;58263;48.146;11.440;2023-05-08T12:36:37;96074.56;;;24.10;37.46
70684;BME280;58263;48.146;11.440;2023-05-08T12:39:14;96070.16;;;23.73;38.11
70684;BME280;58263;48.146;11.440;2023-05-08T12:41:50;96074.84;;;23.58;38.10
70684;BME280;58263;48.146;11.440;2023-05-08T12:44:23;96068.34;;;23.54;38.09
70684;BME280;58263;48.146;11.440;2023-05-08T12:46:54;96075.25;;;23.38;38.72
70684;BME280;58263;48.146;11.440;2023-05-08T12:49:30;96071.13;;;23.26;40.04
70684;BME280;58263;48.146;11.440;2023-05-08T12:52:08;96078.13;;;22.86;39.27
70684;BME280;58263;48.146;11.440;2023-05-08T12:54:37;96079.28;;;22.33;39.74
70684;BME280;58263;48.146;11.440;2023-05-08T12:57:08;96071.44;;;22.26;40.69
70684;BME280;58263;48.146;11.440;2023-05-08T12:59:34;96079.97;;;22.05;40.75
70684;BME280;58263;48.146;11.440;2023-05-08T13:02:00;96074.44;;;21.91;41.17
70684;BME280;58263;48.146;11.440;2023-05-08T13:04:25;96075.97;;;22.17;40.13
70684;BME280;58263;48.146;11.440;2023-05-08T13:06:56;96074.88;;;21.99;40.63
70684;BME280;58263;48.146;11.440;2023-05-08T13:09:22;96074.00;;;21.84;41.30
70684;BME280;58263;48.146;11.440;2023-05-08T13:11:47;96070.47;;;21.59;41.44
70684;BME280;58263;48.146;11.440;2023-05-08T13:14:13;96073.53;;;21.77;41.82
70684;BME280;58263;48.146;11.440;2023-05-08T13:16:45;96067.50;;;21.80;41.50
70684;BME280;58263;48.146;11.440;2023-05-08T13:19:12;96070.13;;;21.85;42.09
70684;BME280;58263;48.146;11.440;2023-05-08T13:21:39;96064.59;;;21.90;41.66
70684;BME280;58263;48.146;11.440;2023-05-08T13:24:05;96065.63;;;21.94;41.15